EGMC

Southend Airport

Southend, United Kingdom
METAR EGMC 241320Z 36005KT 300V030 9999 FEW039 13/05 Q1037
Observed Flight Rules
Sep-24 @ 13:20 UTC (17 minutes ago) Visual Flight Rules
Wind Visibility Clouds
360° at 5 knots 10,000+ meters
  • Few at 3,900' AGL
Temperatures Readings
Current 13°C / 55°F
Dewpoint 5°C / 41°F
Humidity 59%
Altimeter 30.62" Hg
Pressure 1037 hPa
Elevation 15
METAR EGMC 241320Z 36005KT 300V030 9999 FEW039 13/05 Q1037
Observed Flight Rules
Sep-24 @ 13:20 UTC
(17 minutes ago)
VFR
Wind Visibility
360° at 5 knots 10,000+ meters
Clouds
  • Few at 3,900' AGL
Temperature Dewpoint
13°C / 55°F 5°C / 41°F
Humidity Altimeter Pressure
59% 30.62" Hg 1037 hPa